createdAt,value
2023-04-02T00:01:01.817Z,5.88
2023-04-02T00:03:42.396Z,6.05
2023-04-02T00:06:33.614Z,5.53
2023-04-02T00:09:05.700Z,5.47
2023-04-02T00:11:35.321Z,5.35
2023-04-02T00:14:06.692Z,7.15
2023-04-02T00:16:33.434Z,6.43
2023-04-02T00:19:04.385Z,7.75
2023-04-02T00:21:33.020Z,6.30
2023-04-02T00:24:01.228Z,6.43
2023-04-02T00:26:35.076Z,6.80
2023-04-02T00:29:04.199Z,6.95
2023-04-02T00:31:31.326Z,5.93
2023-04-02T00:33:59.760Z,5.40
2023-04-02T00:36:30.218Z,5.18
2023-04-02T00:38:58.934Z,6.00
2023-04-02T00:41:29.837Z,5.22
2023-04-02T00:43:58.335Z,5.03
2023-04-02T00:46:38.126Z,5.72
2023-04-02T00:49:11.354Z,4.22
2023-04-02T00:52:07.735Z,5.07
2023-04-02T00:55:01.063Z,5.25
2023-04-02T00:57:28.295Z,4.78
2023-04-02T01:00:22.694Z,6.00
2023-04-02T01:03:17.061Z,5.13
2023-04-02T01:05:45.909Z,5.07
2023-04-02T01:08:16.948Z,5.63
2023-04-02T01:11:09.742Z,4.85
2023-04-02T01:13:40.413Z,4.45
2023-04-02T01:16:29.967Z,5.03
2023-04-02T01:19:02.580Z,4.97
2023-04-02T01:21:42.536Z,5.40
2023-04-02T01:24:13.704Z,4.45
2023-04-02T01:27:04.716Z,4.60
2023-04-02T01:29:33.887Z,4.38
2023-04-02T01:32:03.798Z,4.00
2023-04-02T01:34:30.971Z,4.82
2023-04-02T01:37:11.385Z,4.80
2023-04-02T01:39:56.281Z,4.68
2023-04-02T01:42:32.123Z,4.72
2023-04-02T01:45:09.724Z,4.38
2023-04-02T01:47:37.933Z,4.03
2023-04-02T01:50:24.076Z,5.13
2023-04-02T01:52:52.684Z,4.30
2023-04-02T01:55:28.385Z,4.00
2023-04-02T01:57:55.274Z,4.78
2023-04-02T02:00:22.734Z,4.68
2023-04-02T02:02:53.882Z,5.00
2023-04-02T02:05:23.171Z,4.65
2023-04-02T02:07:51.698Z,5.00
2023-04-02T02:10:24.454Z,4.90
2023-04-02T02:12:51.369Z,4.63
2023-04-02T02:15:20.760Z,4.25
2023-04-02T02:17:48.171Z,4.35
2023-04-02T02:20:15.010Z,4.15
2023-04-02T02:22:46.655Z,4.07
2023-04-02T02:25:19.074Z,4.55
2023-04-02T02:27:46.028Z,3.50
2023-04-02T02:30:29.234Z,3.72
2023-04-02T02:33:31.133Z,4.00
2023-04-02T02:36:25.059Z,3.60
2023-04-02T02:38:54.504Z,2.97
2023-04-02T02:41:37.732Z,3.20
2023-04-02T02:44:11.063Z,2.90
2023-04-02T02:46:41.631Z,2.90
2023-04-02T02:49:15.635Z,3.40
2023-04-02T02:51:47.323Z,2.45
2023-04-02T02:54:19.824Z,3.13
2023-04-02T02:56:51.361Z,3.50
2023-04-02T02:59:19.183Z,4.35
2023-04-02T03:01:47.401Z,2.80
2023-04-02T03:04:20.974Z,2.97
2023-04-02T03:06:50.755Z,3.38
2023-04-02T03:09:23.966Z,3.00
2023-04-02T03:12:03.928Z,2.35
2023-04-02T03:14:34.050Z,2.73
2023-04-02T03:17:15.276Z,3.20
2023-04-02T03:19:47.412Z,2.50
2023-04-02T03:22:41.483Z,2.50
2023-04-02T03:25:25.441Z,2.38
2023-04-02T03:27:59.655Z,2.20
2023-04-02T03:30:39.164Z,2.67
2023-04-02T03:33:13.314Z,2.30
2023-04-02T03:36:14.073Z,2.88
2023-04-02T03:38:43.892Z,2.50
2023-04-02T03:41:19.963Z,2.23
2023-04-02T03:43:48.056Z,2.40
2023-04-02T03:46:27.703Z,2.42
2023-04-02T03:48:59.264Z,2.30
2023-04-02T03:51:40.555Z,2.25
2023-04-02T03:54:12.942Z,2.47
2023-04-02T03:56:39.959Z,3.78
2023-04-02T03:59:31.928Z,2.70
2023-04-02T04:02:02.683Z,2.30
2023-04-02T04:04:31.826Z,2.65
2023-04-02T04:06:58.714Z,2.85
2023-04-02T04:09:37.956Z,2.90
2023-04-02T04:12:36.118Z,3.20
2023-04-02T04:15:10.032Z,2.78
2023-04-02T04:17:54.060Z,3.05
2023-04-02T04:20:30.936Z,3.00
2023-04-02T04:23:08.895Z,3.05
2023-04-02T04:25:37.206Z,2.55
2023-04-02T04:28:24.626Z,2.40
2023-04-02T04:31:04.109Z,2.22
2023-04-02T04:33:43.038Z,2.67
2023-04-02T04:36:28.770Z,2.70
2023-04-02T04:39:07.475Z,3.10
2023-04-02T04:41:38.017Z,2.85
2023-04-02T04:44:35.367Z,3.65
2023-04-02T04:47:15.980Z,2.80
2023-04-02T04:49:45.800Z,2.70
2023-04-02T04:52:33.746Z,2.78
2023-04-02T04:55:00.998Z,2.70
2023-04-02T04:57:40.167Z,2.30
2023-04-02T05:00:20.707Z,2.50
2023-04-02T05:02:52.270Z,2.28
2023-04-02T05:05:25.394Z,3.60
2023-04-02T05:07:59.837Z,3.42
2023-04-02T05:10:47.363Z,3.03
2023-04-02T05:13:19.920Z,2.90
2023-04-02T05:15:53.308Z,3.75
2023-04-02T05:18:27.513Z,2.35
2023-04-02T05:21:13.136Z,2.65
2023-04-02T05:24:10.433Z,2.83
2023-04-02T05:26:46.003Z,2.80
2023-04-02T05:29:20.765Z,2.55
2023-04-02T05:32:04.559Z,3.42
2023-04-02T05:34:34.402Z,3.10
2023-04-02T05:37:02.210Z,3.53
2023-04-02T05:39:30.167Z,3.28
2023-04-02T05:42:08.439Z,3.10
2023-04-02T05:45:05.081Z,2.78
2023-04-02T05:47:32.722Z,2.80
2023-04-02T05:50:13.705Z,3.90
2023-04-02T05:52:50.297Z,2.33
2023-04-02T05:55:16.842Z,2.78
2023-04-02T05:58:07.053Z,3.22
2023-04-02T06:00:37.353Z,3.00
2023-04-02T06:03:08.251Z,2.85
2023-04-02T06:05:40.066Z,3.13
2023-04-02T06:10:38.057Z,3.53
2023-04-02T06:13:08.453Z,3.05
2023-04-02T06:15:42.008Z,2.40
2023-04-02T06:18:27.986Z,2.70
2023-04-02T06:20:56.259Z,2.83
2023-04-02T06:23:37.181Z,2.55
2023-04-02T06:26:19.831Z,2.75
2023-04-02T06:28:49.593Z,2.10
2023-04-02T06:31:41.261Z,2.42
2023-04-02T06:34:21.313Z,3.30
2023-04-02T06:36:58.644Z,2.45
2023-04-02T06:39:27.163Z,2.33
2023-04-02T06:42:14.999Z,2.13
2023-04-02T06:45:02.507Z,1.92
2023-04-02T06:47:48.881Z,2.10
2023-04-02T06:50:40.895Z,2.17
2023-04-02T06:53:11.682Z,2.08
2023-04-02T06:55:48.040Z,2.25
2023-04-02T06:58:19.956Z,2.10
2023-04-02T07:00:50.724Z,2.08
2023-04-02T07:03:32.218Z,1.90
2023-04-02T07:06:04.883Z,1.55
2023-04-02T07:08:33.460Z,1.70
2023-04-02T07:11:00.752Z,2.05
2023-04-02T07:13:28.089Z,1.70
2023-04-02T07:15:55.617Z,1.50
2023-04-02T07:18:33.967Z,2.13
2023-04-02T07:23:33.667Z,1.88
2023-04-02T07:26:02.118Z,1.77
2023-04-02T07:28:29.240Z,1.85
2023-04-02T07:30:56.490Z,1.98
2023-04-02T07:33:25.441Z,1.80
2023-04-02T07:35:54.062Z,1.83
2023-04-02T07:38:20.757Z,1.60
2023-04-02T07:40:47.639Z,1.63
2023-04-02T07:43:14.237Z,1.55
2023-04-02T07:45:40.905Z,1.90
2023-04-02T07:48:12.856Z,1.45
2023-04-02T07:50:39.397Z,1.90
2023-04-02T07:53:07.234Z,2.05
2023-04-02T07:55:34.210Z,2.00
2023-04-02T07:58:00.896Z,1.70
2023-04-02T08:00:29.145Z,1.40
2023-04-02T08:02:56.370Z,1.40
2023-04-02T08:05:23.158Z,1.48
2023-04-02T08:07:54.534Z,1.80
2023-04-02T08:10:21.550Z,1.95
2023-04-02T08:12:48.531Z,2.25
2023-04-02T08:15:16.071Z,1.73
2023-04-02T08:17:43.406Z,1.63
2023-04-02T08:20:19.269Z,1.60
2023-04-02T08:22:46.808Z,1.60
2023-04-02T08:25:13.446Z,1.40
2023-04-02T08:27:40.028Z,1.42
2023-04-02T08:30:07.874Z,1.70
2023-04-02T08:32:34.752Z,2.03
2023-04-02T08:35:01.547Z,1.85
2023-04-02T08:37:28.170Z,2.33
2023-04-02T08:39:54.772Z,1.60
2023-04-02T08:42:42.829Z,1.60
2023-04-02T08:45:46.801Z,1.45
2023-04-02T08:48:15.432Z,1.58
2023-04-02T08:50:43.792Z,1.73
2023-04-02T08:53:17.606Z,1.92
2023-04-02T08:55:55.804Z,1.85
2023-04-02T08:58:32.996Z,2.03
2023-04-02T09:01:02.312Z,1.50
2023-04-02T09:03:32.455Z,1.90
2023-04-02T09:05:59.825Z,2.03
2023-04-02T09:08:27.450Z,1.80
2023-04-02T09:11:07.370Z,1.60
2023-04-02T09:13:37.513Z,1.88
2023-04-02T09:16:09.068Z,1.80
2023-04-02T09:18:36.432Z,1.80
2023-04-02T09:21:18.520Z,2.13
2023-04-02T09:23:45.091Z,1.83
2023-04-02T09:26:24.099Z,1.85
2023-04-02T09:28:51.845Z,1.70
2023-04-02T09:31:48.751Z,1.75
2023-04-02T09:34:32.683Z,1.58
2023-04-02T09:37:15.323Z,2.13
2023-04-02T09:39:41.964Z,2.10
2023-04-02T09:42:28.219Z,3.05
2023-04-02T09:45:13.133Z,2.00
2023-04-02T09:47:42.473Z,2.65
2023-04-02T09:50:21.429Z,1.30
2023-04-02T09:52:48.779Z,1.65
2023-04-02T09:55:18.659Z,1.77
2023-04-02T09:57:46.785Z,1.58
2023-04-02T10:00:31.951Z,2.13
2023-04-02T10:03:05.637Z,1.88
2023-04-02T10:05:40.678Z,1.88
2023-04-02T10:08:19.513Z,1.55
2023-04-02T10:10:49.907Z,1.98
2023-04-02T10:13:34.264Z,1.90
2023-04-02T10:16:04.611Z,1.40
2023-04-02T10:18:41.619Z,1.83
2023-04-02T10:21:11.207Z,1.42
2023-04-02T10:23:37.753Z,1.35
2023-04-02T10:26:09.935Z,2.22
2023-04-02T10:28:46.081Z,1.85
2023-04-02T10:31:22.581Z,1.60
2023-04-02T10:33:52.238Z,1.92
2023-04-02T10:36:40.497Z,1.60
2023-04-02T10:39:19.433Z,1.52
2023-04-02T10:42:10.493Z,1.35
2023-04-02T10:45:10.913Z,1.83
2023-04-02T10:47:48.510Z,2.13
2023-04-02T10:50:29.563Z,1.95
2023-04-02T10:53:12.069Z,1.92
2023-04-02T10:55:43.846Z,1.92
2023-04-02T10:58:38.572Z,1.83
2023-04-02T11:01:16.998Z,1.80
2023-04-02T11:03:47.709Z,1.40
2023-04-02T11:06:20.532Z,1.90
2023-04-02T11:08:49.662Z,1.50
2023-04-02T11:11:38.436Z,1.58
2023-04-02T11:14:14.848Z,1.65
2023-04-02T11:16:44.573Z,1.92
2023-04-02T11:19:14.592Z,1.65
2023-04-02T11:21:55.502Z,2.20
2023-04-02T11:24:33.953Z,1.60
2023-04-02T11:27:14.342Z,1.67
2023-04-02T11:29:48.146Z,1.92
2023-04-02T11:32:20.745Z,1.92
2023-04-02T11:34:49.548Z,2.08
2023-04-02T11:37:41.135Z,1.73
2023-04-02T11:40:07.770Z,1.80
2023-04-02T11:42:36.142Z,1.92
2023-04-02T11:45:21.350Z,2.22
2023-04-02T11:48:17.301Z,2.00
2023-04-02T11:50:45.365Z,1.70
2023-04-02T11:53:11.939Z,2.20
2023-04-02T11:56:05.212Z,1.90
2023-04-02T11:58:49.498Z,1.92
2023-04-02T12:01:25.040Z,2.22
2023-04-02T12:04:28.226Z,2.47
2023-04-02T12:07:34.919Z,1.45
2023-04-02T12:10:15.459Z,1.98
2023-04-02T12:12:43.140Z,2.20
2023-04-02T12:15:31.565Z,1.60
2023-04-02T12:18:24.589Z,2.35
2023-04-02T12:20:53.478Z,2.60
2023-04-02T12:23:23.015Z,1.98
2023-04-02T12:26:01.714Z,2.50
2023-04-02T12:28:29.979Z,2.05
2023-04-02T12:31:13.371Z,3.45
2023-04-02T12:33:41.192Z,3.25
2023-04-02T12:36:19.356Z,2.63
2023-04-02T12:38:52.653Z,2.50
2023-04-02T12:41:24.965Z,3.15
2023-04-02T12:44:15.552Z,2.03
2023-04-02T12:46:42.594Z,2.55
2023-04-02T12:49:25.253Z,2.20
2023-04-02T12:51:52.144Z,1.55
2023-04-02T12:54:20.471Z,1.63
2023-04-02T12:56:48.537Z,1.42
2023-04-02T12:59:29.865Z,1.70
2023-04-02T13:01:59.080Z,1.50
2023-04-02T13:04:26.458Z,1.73
2023-04-02T13:06:56.351Z,2.38
2023-04-02T13:09:52.780Z,1.90
2023-04-02T13:12:28.207Z,1.70
2023-04-02T13:14:59.557Z,1.65
2023-04-02T13:17:44.427Z,2.03
2023-04-02T13:20:38.823Z,1.73
2023-04-02T13:23:30.304Z,1.25
2023-04-02T13:28:28.935Z,1.70
2023-04-02T13:30:55.534Z,1.65
2023-04-02T13:33:22.055Z,1.60
2023-04-02T13:35:48.670Z,1.23
2023-04-02T13:38:15.336Z,1.38
2023-04-02T13:40:41.937Z,2.22
2023-04-02T13:43:17.298Z,1.50
2023-04-02T13:45:45.963Z,1.90
2023-04-02T13:48:15.977Z,1.88
2023-04-02T13:50:42.724Z,1.38
2023-04-02T13:53:16.164Z,1.55
2023-04-02T13:55:42.910Z,1.20
2023-04-02T13:58:10.650Z,1.48
2023-04-02T14:00:37.898Z,1.40
2023-04-02T14:03:08.625Z,1.63
2023-04-02T14:05:44.591Z,1.48
2023-04-02T14:08:56.983Z,1.70
2023-04-02T14:11:28.665Z,1.80
2023-04-02T14:14:36.154Z,1.80
2023-04-02T14:17:25.899Z,2.03
2023-04-02T14:20:03.176Z,1.60
2023-04-02T14:22:39.405Z,1.77
2023-04-02T14:25:23.138Z,1.25
2023-04-02T14:27:58.608Z,1.92
2023-04-02T14:30:49.931Z,1.27
2023-04-02T14:33:34.993Z,1.65
2023-04-02T14:36:24.048Z,1.50
2023-04-02T14:39:12.788Z,1.77
2023-04-02T14:41:52.554Z,1.45
2023-04-02T14:44:22.757Z,1.73
2023-04-02T14:46:50.045Z,1.27
2023-04-02T14:49:24.411Z,1.52
2023-04-02T14:52:00.747Z,1.30
2023-04-02T14:54:33.525Z,1.52
2023-04-02T14:57:16.953Z,1.50
2023-04-02T15:00:07.378Z,1.48
2023-04-02T15:02:42.555Z,1.50
2023-04-02T15:05:14.471Z,1.45
2023-04-02T15:07:45.857Z,1.90
2023-04-02T15:10:32.206Z,1.50
2023-04-02T15:13:00.661Z,1.40
2023-04-02T15:15:40.629Z,1.75
2023-04-02T15:18:16.310Z,2.10
2023-04-02T15:21:03.262Z,1.40
2023-04-02T15:23:38.321Z,1.90
2023-04-02T15:26:12.835Z,1.60
2023-04-02T15:28:47.684Z,1.85
2023-04-02T15:31:14.966Z,1.20
2023-04-02T15:33:46.028Z,1.83
2023-04-02T15:36:38.363Z,1.40
2023-04-02T15:39:12.840Z,1.65
2023-04-02T15:41:56.166Z,1.45
2023-04-02T15:44:23.698Z,1.80
2023-04-02T15:47:15.475Z,1.70
2023-04-02T15:49:47.377Z,1.60
2023-04-02T15:52:40.105Z,2.17
2023-04-02T15:55:28.679Z,1.90
2023-04-02T15:58:07.276Z,1.65
2023-04-02T16:00:44.899Z,1.25
2023-04-02T16:03:34.134Z,1.45
2023-04-02T16:06:21.115Z,3.45
2023-04-02T16:08:57.331Z,1.83
2023-04-02T16:11:25.811Z,1.58
2023-04-02T16:13:58.399Z,1.20
2023-04-02T16:16:36.081Z,1.73
2023-04-02T16:19:16.001Z,1.48
2023-04-02T16:21:50.214Z,2.63
2023-04-02T16:24:16.771Z,1.98
2023-04-02T16:27:18.525Z,1.52
2023-04-02T16:29:58.185Z,2.38
2023-04-02T16:32:30.345Z,1.48
2023-04-02T16:35:41.262Z,1.75
2023-04-02T16:38:19.108Z,1.45
2023-04-02T16:41:07.045Z,1.60
2023-04-02T16:43:48.049Z,1.58
2023-04-02T16:47:02.548Z,1.90
2023-04-02T16:49:45.362Z,1.90
2023-04-02T16:52:32.913Z,1.38
2023-04-02T16:55:30.208Z,2.47
2023-04-02T16:58:19.432Z,1.40
2023-04-02T17:00:53.362Z,1.77
2023-04-02T17:03:41.954Z,1.75
2023-04-02T17:06:29.642Z,1.60
2023-04-02T17:09:27.311Z,2.50
2023-04-02T17:12:17.555Z,1.70
2023-04-02T17:14:52.318Z,1.73
2023-04-02T17:17:20.567Z,1.60
2023-04-02T17:19:48.817Z,1.83
2023-04-02T17:22:21.320Z,1.67
2023-04-02T17:24:53.835Z,1.50
2023-04-02T17:27:26.035Z,1.50
2023-04-02T17:29:55.950Z,1.98
2023-04-02T17:32:32.452Z,1.90
2023-04-02T17:35:18.152Z,1.70
2023-04-02T17:37:52.727Z,2.00
2023-04-02T17:40:22.606Z,1.95
2023-04-02T17:43:15.680Z,1.85
2023-04-02T17:45:44.984Z,4.22
2023-04-02T17:48:43.644Z,1.92
2023-04-02T17:51:30.189Z,2.30
2023-04-02T17:54:05.981Z,1.70
2023-04-02T17:57:00.613Z,2.67
2023-04-02T17:59:58.231Z,2.20
2023-04-02T18:02:58.354Z,2.33
2023-04-02T18:05:32.779Z,2.20
2023-04-02T18:08:15.834Z,2.22
2023-04-02T18:11:05.061Z,1.95
2023-04-02T18:13:41.110Z,1.98
2023-04-02T18:16:13.785Z,2.00
2023-04-02T18:19:03.577Z,2.50
2023-04-02T18:21:47.082Z,2.80
2023-04-02T18:24:48.828Z,2.03
2023-04-02T18:27:18.217Z,1.73
2023-04-02T18:30:24.169Z,2.28
2023-04-02T18:33:08.229Z,1.83
2023-04-02T18:35:59.963Z,1.95
2023-04-02T18:39:00.128Z,1.75
2023-04-02T18:41:44.540Z,2.35
2023-04-02T18:44:32.484Z,2.33
2023-04-02T18:47:23.587Z,2.17
2023-04-02T18:50:13.285Z,2.53
2023-04-02T18:52:41.458Z,2.10
2023-04-02T18:55:15.639Z,2.30
2023-04-02T18:57:42.964Z,2.03
2023-04-02T19:00:19.572Z,2.22
2023-04-02T19:03:04.134Z,2.17
2023-04-02T19:05:51.772Z,3.08
2023-04-02T19:08:27.271Z,1.77
2023-04-02T19:10:59.235Z,1.73
2023-04-02T19:13:26.317Z,2.65
2023-04-02T19:15:58.666Z,2.03
2023-04-02T19:18:46.988Z,2.20
2023-04-02T19:21:32.235Z,3.78
2023-04-02T19:24:14.057Z,3.80
2023-04-02T19:26:54.383Z,2.30
2023-04-02T19:29:27.888Z,1.98
2023-04-02T19:32:16.897Z,2.25
2023-04-02T19:34:52.507Z,1.90
2023-04-02T19:37:30.050Z,2.67
2023-04-02T19:40:23.709Z,2.35
2023-04-02T19:42:51.969Z,2.33
2023-04-02T19:45:29.183Z,3.00
2023-04-02T19:47:56.765Z,2.22
2023-04-02T19:50:23.405Z,2.30
2023-04-02T19:52:50.094Z,2.45
2023-04-02T19:55:16.607Z,2.47
2023-04-02T19:57:43.260Z,3.00
2023-04-02T20:00:14.005Z,2.90
2023-04-02T20:02:40.582Z,2.88
2023-04-02T20:05:07.606Z,2.20
2023-04-02T20:07:34.122Z,2.58
2023-04-02T20:10:00.626Z,2.75
2023-04-02T20:12:27.176Z,2.55
2023-04-02T20:14:53.700Z,3.25
2023-04-02T20:17:20.261Z,2.58
2023-04-02T20:19:46.798Z,2.50
2023-04-02T20:22:13.452Z,2.40
2023-04-02T20:24:41.023Z,2.55
2023-04-02T20:27:07.618Z,2.88
2023-04-02T20:29:34.086Z,2.45
2023-04-02T20:32:00.637Z,2.50
2023-04-02T20:34:27.193Z,2.25
2023-04-02T20:36:53.876Z,2.20
2023-04-02T20:39:21.424Z,2.97
2023-04-02T20:41:48.191Z,2.25
2023-04-02T20:44:14.690Z,2.17
2023-04-02T20:46:41.548Z,2.75
2023-04-02T20:49:08.152Z,2.28
2023-04-02T20:51:34.631Z,2.85
2023-04-02T20:54:01.364Z,2.90
2023-04-02T20:56:27.941Z,2.58
2023-04-02T20:58:54.502Z,2.17
2023-04-02T21:01:26.492Z,2.30
2023-04-02T21:03:57.747Z,2.10
2023-04-02T21:06:26.302Z,2.55
2023-04-02T21:08:53.167Z,3.47
2023-04-02T21:11:20.055Z,3.10
2023-04-02T21:13:46.661Z,3.03
2023-04-02T21:16:16.123Z,2.03
2023-04-02T21:18:43.360Z,2.10
2023-04-02T21:21:13.608Z,3.83
2023-04-02T21:23:41.061Z,3.08
2023-04-02T21:26:09.885Z,2.28
2023-04-02T21:28:36.834Z,2.28
2023-04-02T21:31:05.863Z,2.80
2023-04-02T21:33:37.099Z,2.30
2023-04-02T21:36:14.559Z,2.55
2023-04-02T21:38:45.671Z,2.20
2023-04-02T21:43:48.649Z,2.20
2023-04-02T21:46:16.512Z,3.13
2023-04-02T21:48:43.443Z,3.17
2023-04-02T21:51:15.668Z,2.80
2023-04-02T21:53:42.705Z,2.40
2023-04-02T21:56:12.946Z,2.50
2023-04-02T21:58:39.536Z,2.58
2023-04-02T22:01:11.198Z,3.33
2023-04-02T22:03:41.126Z,3.25
2023-04-02T22:06:12.475Z,2.70
2023-04-02T22:08:39.837Z,2.55
2023-04-02T22:11:14.408Z,2.10
2023-04-02T22:13:41.746Z,2.30
2023-04-02T22:16:13.898Z,2.30
2023-04-02T22:18:40.928Z,2.00
2023-04-02T22:21:08.149Z,3.00
2023-04-02T22:23:35.529Z,2.55
2023-04-02T22:26:02.341Z,2.45
2023-04-02T22:28:29.175Z,1.98
2023-04-02T22:30:56.305Z,2.53
2023-04-02T22:33:22.824Z,2.28
2023-04-02T22:35:51.711Z,2.65
2023-04-02T22:38:19.033Z,2.13
2023-04-02T22:40:45.900Z,2.60
2023-04-02T22:43:12.477Z,2.03
2023-04-02T22:45:39.019Z,2.25
2023-04-02T22:48:05.593Z,2.63
2023-04-02T22:50:32.118Z,2.58
2023-04-02T22:52:58.676Z,2.55
2023-04-02T22:55:25.374Z,2.28
2023-04-02T22:57:51.843Z,2.03
2023-04-02T23:00:18.758Z,2.70
2023-04-02T23:02:45.711Z,2.40
2023-04-02T23:05:12.515Z,1.80
2023-04-02T23:07:39.082Z,2.58
2023-04-02T23:10:06.026Z,2.15
2023-04-02T23:12:32.528Z,2.25
2023-04-02T23:14:59.737Z,3.30
2023-04-02T23:17:26.497Z,2.40
2023-04-02T23:19:53.002Z,2.45
2023-04-02T23:22:19.498Z,2.97
2023-04-02T23:24:45.985Z,2.10
2023-04-02T23:27:12.482Z,2.40
2023-04-02T23:29:38.980Z,3.05
2023-04-02T23:32:05.871Z,2.17
2023-04-02T23:34:32.357Z,2.42
2023-04-02T23:36:58.856Z,3.33
2023-04-02T23:39:25.356Z,2.20
2023-04-02T23:41:51.876Z,3.13
2023-04-02T23:44:18.457Z,2.30
2023-04-02T23:46:45.080Z,1.90
2023-04-02T23:49:13.072Z,2.05
2023-04-02T23:51:40.658Z,2.88
2023-04-02T23:54:07.624Z,2.30
2023-04-02T23:56:34.142Z,2.25
2023-04-02T23:59:00.808Z,3.08
